Flight Track Log - Related Links

Times and Time Zones

All times are in EDT time to prevent confusion due to time zone crossing. See the CCA4324 flight status page for this flight to view local times or setup timezone preferences in your user account.

Time Position Orientation Groundspeed Altitude Reporting Facility
EDT Latitude Longitude Course Direction KTS MPH feet Rate Location/Type
Tue 10:50:32 AM 25.3961 109.8505 316° Northwest  Level Estimated
Tue 10:51:32 AM 25.4663 109.7759 316° Northwest  Level Estimated
Tue 10:52:32 AM 25.5365 109.7012 316° Northwest  Level Estimated
Tue 10:53:32 AM 25.6066 109.6264 316° Northwest  Level Estimated
Tue 10:54:32 AM 25.6767 109.5515 316° Northwest  Level Estimated
Tue 10:55:32 AM 25.7467 109.4765 316° Northwest  Level Estimated
Tue 10:56:32 AM 25.8167 109.4015 316° Northwest  Level Estimated
Tue 10:57:32 AM 25.8867 109.3263 316° Northwest  Level Estimated
Tue 10:58:32 AM 25.9566 109.2511 316° Northwest  Level Estimated
Tue 10:59:32 AM 26.0265 109.1758 316° Northwest  Level Estimated
Tue 11:00:32 AM 26.0964 109.1003 316° Northwest  Level Estimated
Tue 11:01:32 AM 26.1662 109.0248 316° Northwest  Level Estimated
Tue 11:02:32 AM 26.2360 108.9492 316° Northwest  Level Estimated
Tue 11:03:32 AM 26.3057 108.8735 316° Northwest  Level Estimated
Tue 11:04:32 AM 26.3754 108.7978 316° Northwest  Level Estimated
Tue 11:05:32 AM 26.4450 108.7219 316° Northwest  Level Estimated
Tue 11:06:32 AM 26.5146 108.6459 316° Northwest  Level Estimated
Tue 11:07:32 AM 26.5842 108.5699 316° Northwest  Level Estimated
Tue 11:08:32 AM 26.6537 108.4937 316° Northwest  Level Estimated
Tue 11:09:32 AM 26.7232 108.4175 316° Northwest  Level Estimated
Tue 11:10:32 AM 26.7927 108.3411 316° Northwest  Level Estimated
Tue 11:11:32 AM 26.8621 108.2647 315° West  Level Estimated
Tue 11:12:32 AM 26.9314 108.1882 315° West  Level Estimated
Tue 11:13:32 AM 27.0008 108.1116 315° West  Level Estimated
Tue 11:14:32 AM 27.0701 108.0349 315° West  Level Estimated
Tue 11:15:32 AM 27.1393 107.9581 315° West  Level Estimated
Tue 11:16:32 AM 27.2085 107.8811 315° West  Level Estimated
Tue 11:17:32 AM 27.2777 107.8042 315° West  Level Estimated
Tue 11:18:32 AM 27.3468 107.7271 315° West  Level Estimated
Tue 11:19:32 AM 27.4159 107.6499 315° West  Level Estimated
Tue 11:20:32 AM 27.4849 107.5726 315° West  Level Estimated
Tue 11:21:32 AM 27.5539 107.4952 315° West  Level Estimated
Tue 11:22:32 AM 27.6228 107.4177 315° West  Level Estimated
Tue 11:23:32 AM 27.6917 107.3401 315° West  Level Estimated
Tue 11:24:32 AM 27.7606 107.2625 315° West  Level Estimated
Tue 11:25:32 AM 27.8294 107.1847 315° West  Level Estimated
Tue 11:26:32 AM 27.8982 107.1068 315° West  Level Estimated
Tue 11:27:32 AM 27.9669 107.0288 315° West  Level Estimated
Tue 11:28:32 AM 28.0356 106.9508 315° West  Level Estimated
Tue 11:29:32 AM 28.1043 106.8726 315° West  Level Estimated
Tue 11:30:32 AM 28.1729 106.7943 315° West  Level Estimated
Tue 11:31:32 AM 28.2414 106.7160 315° West  Level Estimated
Tue 11:32:32 AM 28.3099 106.6375 315° West  Level Estimated
Tue 11:33:32 AM 28.3784 106.5589 315° West  Level Estimated
Tue 11:34:32 AM 28.4468 106.4802 315° West  Level Estimated
Tue 11:35:32 AM 28.5152 106.4015 315° West  Level Estimated
Tue 11:36:32 AM 28.5835 106.3226 315° West  Level Estimated
Tue 11:37:32 AM 28.6518 106.2436 315° West  Level Estimated
Tue 11:38:32 AM 28.7200 106.1645 315° West  Level Estimated
Tue 11:39:32 AM 28.7882 106.0853 314° West  Level Estimated
Tue 11:40:32 AM 28.8563 106.0060 314° West  Level Estimated
Tue 11:41:32 AM 28.9244 105.9267 314° West  Level Estimated
Tue 11:42:32 AM 28.9925 105.8472 314° West  Level Estimated
Tue 11:43:32 AM 29.0605 105.7675 314° West  Level Estimated
Tue 11:44:32 AM 29.1285 105.6878 314° West  Level Estimated
Tue 11:45:32 AM 29.1964 105.6080 314° West  Level Estimated
Tue 11:46:32 AM 29.2642 105.5281 314° West  Level Estimated
Tue 11:47:32 AM 29.3321 105.4481 314° West  Level Estimated
Tue 11:48:32 AM 29.3998 105.3680 314° West  Level Estimated
Tue 11:49:32 AM 29.4675 105.2877 314° West  Level Estimated
Tue 11:50:32 AM 29.5352 105.2074 314° West  Level Estimated
Tue 11:51:32 AM 29.6028 105.1269 314° West  Level Estimated
Tue 11:52:32 AM 29.6704 105.0463 314° West  Level Estimated
Tue 11:53:32 AM 29.7379 104.9657 314° West  Level Estimated
Tue 11:54:32 AM 29.8054 104.8849 314° West  Level Estimated
Tue 11:55:32 AM 29.8728 104.8040 314° West  Level Estimated
Tue 11:56:32 AM 29.9402 104.7230 314° West  Level Estimated
Tue 11:57:32 AM 30.0075 104.6419 314° West  Level Estimated
Tue 11:58:32 AM 30.0748 104.5607 314° West  Level Estimated
Tue 11:59:32 AM 30.1421 104.4793 314° West  Level Estimated
Tue 12:00:32 PM 30.2092 104.3979 314° West  Level Estimated
Tue 12:01:32 PM 30.2764 104.3164 314° West  Level Estimated
Tue 12:02:32 PM 30.3434 104.2347 314° West  Level Estimated
Tue 12:03:32 PM 30.4105 104.1529 314° West  Level Estimated
Tue 12:04:32 PM 30.4774 104.0710 313° West  Level Estimated
Tue 12:05:32 PM 30.5443 103.9890 313° West  Level Estimated
Tue 12:06:32 PM 30.6112 103.9069 133° Southeast  Level Estimated
Tue 12:07:32 PM 30.5443 103.9890 313° West  Level Estimated
Tue 12:08:32 PM 30.6112 103.9069 133° Southeast  Level Estimated
Tue 12:09:32 PM 30.5443 103.9890 313° West  Level Estimated
Tue 12:10:32 PM 30.6112 103.9069 133° Southeast  Level Estimated
Tue 12:11:32 PM 30.5443 103.9890 313° West  Level Estimated
Tue 12:12:32 PM 30.6112 103.9069 133° Southeast  Level Estimated
Tue 12:13:32 PM 30.5443 103.9890 313° West  Level Estimated
Tue 12:14:32 PM 30.6112 103.9069 133° Southeast  Level Estimated
Tue 12:15:32 PM 30.5443 103.9890 313° West  Level Estimated
Tue 12:16:32 PM 30.6112 103.9069 133° Southeast  Level Estimated
Tue 12:17:32 PM 30.5443 103.9890 313° West  Level Estimated
Tue 12:18:32 PM 30.6112 103.9069 133° Southeast  Level Estimated
Tue 12:19:32 PM 30.5443 103.9890 313° West  Level Estimated
Tue 12:20:32 PM 30.6112 103.9069 133° Southeast  Level Estimated
Tue 12:21:32 PM 30.5443 103.9890 133° Southeast  Level Estimated

Login

Don't have an account? Register now (free) for customized features, flight alerts, and more!